Time;durP1;ratioP1;P1;durP2;ratioP2;P2;SDS_P1;SDS_P2;PMS_P1;PMS_P2;Temp;Humidity;BMP_temperature;BMP_pressure;BME280_temperature;BME280_humidity;BME280_pressure;Samples;Min_cycle;Max_cycle;Signal;HPM_P1;HPM_P2
2023/02/04 00:02:26;;;;;;;6.63;5.03;;;;;;;;;;4939227;28;20043;-76
2023/02/04 00:04:54;;;;;;;5.22;4.72;;;;;;;;;;4954944;28;20058;-76
2023/02/04 00:07:21;;;;;;;5.50;4.93;;;;;;;;;;4954368;28;20517;-76
2023/02/04 00:09:48;;;;;;;5.55;4.95;;;;;;;;;;4940796;28;20058;-76
2023/02/04 00:12:15;;;;;;;7.35;5.50;;;;;;;;;;4936452;28;20512;-76
2023/02/04 00:14:43;;;;;;;6.18;5.10;;;;;;;;;;4964538;28;20047;-76
2023/02/04 00:17:11;;;;;;;6.45;5.15;;;;;;;;;;4937369;28;20058;-77
2023/02/04 00:19:39;;;;;;;7.35;5.38;;;;;;;;;;4954944;28;20113;-76
2023/02/04 00:22:07;;;;;;;5.68;4.88;;;;;;;;;;4943827;28;20057;-76
2023/02/04 00:24:35;;;;;;;5.78;4.35;;;;;;;;;;4934791;29;20054;-75
2023/02/04 00:27:03;;;;;;;5.97;4.72;;;;;;;;;;4966597;28;20459;-75
2023/02/04 00:29:29;;;;;;;6.70;5.68;;;;;;;;;;4943957;28;20059;-76
2023/02/04 00:31:57;;;;;;;7.40;4.90;;;;;;;;;;4954136;28;20061;-75
2023/02/04 00:34:24;;;;;;;6.72;5.70;;;;;;;;;;4953949;28;20523;-76
2023/02/04 00:36:51;;;;;;;6.80;4.97;;;;;;;;;;4953815;28;20507;-75
2023/02/04 00:39:18;;;;;;;6.57;4.57;;;;;;;;;;4946019;28;20061;-76
2023/02/04 00:41:44;;;;;;;8.95;4.70;;;;;;;;;;4938017;28;20062;-74
2023/02/04 00:44:12;;;;;;;6.68;4.20;;;;;;;;;;4953864;28;20051;-76
2023/02/04 00:46:42;;;;;;;6.32;4.32;;;;;;;;;;4965147;28;20082;-76
2023/02/04 00:49:10;;;;;;;4.60;3.78;;;;;;;;;;4953891;28;20059;-76
2023/02/04 00:51:38;;;;;;;5.72;3.80;;;;;;;;;;4938107;28;20051;-76
2023/02/04 00:54:06;;;;;;;4.30;3.42;;;;;;;;;;4938447;28;20050;-76
2023/02/04 00:56:33;;;;;;;7.38;3.60;;;;;;;;;;4938391;28;20055;-77
2023/02/04 00:59:00;;;;;;;4.22;3.45;;;;;;;;;;4938019;28;20492;-77
2023/02/04 01:01:27;;;;;;;7.65;3.53;;;;;;;;;;4953735;28;20077;-76
2023/02/04 01:03:54;;;;;;;6.75;3.78;;;;;;;;;;4937976;28;20054;-76
2023/02/04 01:06:20;;;;;;;5.47;3.45;;;;;;;;;;4953635;28;20055;-77
2023/02/04 01:08:47;;;;;;;6.88;3.63;;;;;;;;;;4961185;28;20414;-77
2023/02/04 01:11:14;;;;;;;4.78;3.90;;;;;;;;;;4944904;28;20062;-77
2023/02/04 01:13:41;;;;;;;7.72;3.42;;;;;;;;;;4938963;28;20042;-77
2023/02/04 01:16:08;;;;;;;5.88;2.42;;;;;;;;;;4937800;28;20069;-76
2023/02/04 01:18:35;;;;;;;5.20;3.00;;;;;;;;;;4939377;28;20461;-76
2023/02/04 01:21:03;;;;;;;5.50;3.65;;;;;;;;;;4953338;28;20084;-76
2023/02/04 01:23:30;;;;;;;5.50;3.90;;;;;;;;;;4962411;28;20419;-76
2023/02/04 01:25:57;;;;;;;5.50;4.03;;;;;;;;;;4953552;28;20046;-77
2023/02/04 01:28:23;;;;;;;7.22;3.90;;;;;;;;;;4953393;28;20042;-77
2023/02/04 01:30:50;;;;;;;8.40;3.55;;;;;;;;;;4937610;28;20510;-76
2023/02/04 01:33:17;;;;;;;8.38;3.88;;;;;;;;;;4961159;28;20054;-76
2023/02/04 01:35:44;;;;;;;4.80;3.05;;;;;;;;;;4934085;29;20061;-76
2023/02/04 01:38:10;;;;;;;5.78;3.05;;;;;;;;;;4960148;28;20050;-75
2023/02/04 01:40:37;;;;;;;5.68;2.78;;;;;;;;;;4953609;28;20421;-75
2023/02/04 01:43:04;;;;;;;5.50;2.80;;;;;;;;;;4953373;28;20518;-75
2023/02/04 01:45:34;;;;;;;3.33;2.63;;;;;;;;;;4963717;28;20050;-75
2023/02/04 01:48:02;;;;;;;5.97;2.85;;;;;;;;;;4968644;28;20051;-75
2023/02/04 01:50:29;;;;;;;5.28;3.55;;;;;;;;;;4937483;28;20085;-75
2023/02/04 01:52:56;;;;;;;6.25;3.28;;;;;;;;;;4947144;28;20043;-75
2023/02/04 01:55:26;;;;;;;5.28;3.45;;;;;;;;;;4937297;28;20134;-75
2023/02/04 01:57:54;;;;;;;5.32;3.30;;;;;;;;;;4940281;28;20467;-76
2023/02/04 02:00:30;;;;;;;5.80;3.03;;;;;;;;;;4971910;28;20043;-75
2023/02/04 02:02:58;;;;;;;7.43;4.20;;;;;;;;;;4941730;28;20381;-75
2023/02/04 02:05:35;;;;;;;6.57;2.90;;;;;;;;;;4972856;28;20531;-75
2023/02/04 02:08:03;;;;;;;3.47;2.70;;;;;;;;;;4959237;28;20060;-75
2023/02/04 02:10:30;;;;;;;5.38;2.10;;;;;;;;;;4939897;28;20061;-76
2023/02/04 02:12:58;;;;;;;3.45;2.72;;;;;;;;;;4941253;28;20051;-76
2023/02/04 02:15:24;;;;;;;2.95;1.90;;;;;;;;;;4940920;28;20059;-76
2023/02/04 02:17:54;;;;;;;14.50;3.00;;;;;;;;;;4956256;28;20042;-77
2023/02/04 02:20:22;;;;;;;3.83;2.15;;;;;;;;;;4954983;28;20055;-77
2023/02/04 02:23:17;;;;;;;4.00;2.78;;;;;;;;;;4937383;29;20578;-76
2023/02/04 02:25:44;;;;;;;6.40;1.95;;;;;;;;;;4955141;29;20065;-75
2023/02/04 02:28:13;;;;;;;8.30;1.77;;;;;;;;;;4964686;28;20576;-76
2023/02/04 02:30:40;;;;;;;5.20;1.63;;;;;;;;;;4941705;28;20062;-75
2023/02/04 02:33:07;;;;;;;8.15;1.75;;;;;;;;;;4941033;28;20073;-76
2023/02/04 02:35:34;;;;;;;6.20;1.92;;;;;;;;;;4948650;28;20062;-76
2023/02/04 02:38:01;;;;;;;8.32;2.25;;;;;;;;;;4955924;28;20062;-75
2023/02/04 02:40:28;;;;;;;4.55;1.50;;;;;;;;;;4954161;28;20397;-76
2023/02/04 02:42:56;;;;;;;3.65;1.80;;;;;;;;;;4962779;28;20055;-76
2023/02/04 02:45:24;;;;;;;4.15;2.20;;;;;;;;;;4972012;28;20059;-75
2023/02/04 02:47:51;;;;;;;3.30;1.83;;;;;;;;;;4947469;28;20043;-76
2023/02/04 02:50:20;;;;;;;9.05;1.92;;;;;;;;;;4936920;29;20062;-76
2023/02/04 02:52:47;;;;;;;5.13;1.50;;;;;;;;;;4973253;28;20050;-77
2023/02/04 02:55:16;;;;;;;5.35;1.83;;;;;;;;;;4940234;28;20063;-76
2023/02/04 02:57:45;;;;;;;7.13;2.55;;;;;;;;;;4940186;28;20069;-77
2023/02/04 03:00:16;;;;;;;8.10;1.90;;;;;;;;;;4940621;28;20117;-76
2023/02/04 03:02:44;;;;;;;6.80;1.98;;;;;;;;;;4940418;28;20058;-76
2023/02/04 03:05:11;;;;;;;6.45;1.75;;;;;;;;;;4956374;28;20141;-76
2023/02/04 03:07:38;;;;;;;9.55;2.42;;;;;;;;;;4971798;28;20054;-77
2023/02/04 03:10:06;;;;;;;10.48;2.67;;;;;;;;;;4939428;28;20695;-76
2023/02/04 03:12:33;;;;;;;9.75;2.70;;;;;;;;;;4942371;28;20050;-76
2023/02/04 03:15:02;;;;;;;10.85;2.10;;;;;;;;;;4955250;28;20047;-77
2023/02/04 03:17:29;;;;;;;6.05;2.22;;;;;;;;;;4969914;28;20396;-76
2023/02/04 03:19:55;;;;;;;5.38;2.17;;;;;;;;;;4935918;28;20051;-76
2023/02/04 03:22:22;;;;;;;7.57;2.13;;;;;;;;;;4964843;28;20068;-76
2023/02/04 03:24:49;;;;;;;9.60;2.22;;;;;;;;;;4967544;28;20054;-76
2023/02/04 03:27:16;;;;;;;7.50;2.17;;;;;;;;;;4939456;28;20054;-76
2023/02/04 03:29:44;;;;;;;9.13;2.13;;;;;;;;;;4955420;28;20051;-76
2023/02/04 03:32:11;;;;;;;8.13;2.22;;;;;;;;;;4955326;28;20062;-76
2023/02/04 03:34:38;;;;;;;9.18;2.13;;;;;;;;;;4967853;28;20074;-76
2023/02/04 03:37:04;;;;;;;13.05;2.72;;;;;;;;;;4935928;29;20055;-75
2023/02/04 03:39:31;;;;;;;11.68;2.75;;;;;;;;;;4965394;28;20655;-75
2023/02/04 03:41:58;;;;;;;6.90;2.30;;;;;;;;;;4939098;28;20133;-76
2023/02/04 03:44:25;;;;;;;6.70;2.25;;;;;;;;;;4951671;28;20117;-76
2023/02/04 03:46:54;;;;;;;12.68;2.88;;;;;;;;;;4954883;28;20110;-76
2023/02/04 03:49:22;;;;;;;8.27;3.55;;;;;;;;;;4954796;28;20055;-76
2023/02/04 03:51:49;;;;;;;7.20;2.40;;;;;;;;;;4939327;28;20047;-76
2023/02/04 03:54:15;;;;;;;7.82;2.40;;;;;;;;;;4951389;28;20054;-76
2023/02/04 03:56:42;;;;;;;10.27;3.38;;;;;;;;;;4939201;28;20055;-76
2023/02/04 03:59:09;;;;;;;9.98;4.97;;;;;;;;;;4954462;28;20126;-76
2023/02/04 04:01:36;;;;;;;14.20;3.90;;;;;;;;;;4970473;28;20050;-76
2023/02/04 04:04:02;;;;;;;9.52;2.83;;;;;;;;;;4947124;28;20130;-76
2023/02/04 04:06:30;;;;;;;9.23;2.53;;;;;;;;;;4938636;28;20050;-76
2023/02/04 04:08:57;;;;;;;6.50;2.30;;;;;;;;;;4970086;28;20046;-76
2023/02/04 04:11:24;;;;;;;7.30;2.55;;;;;;;;;;4954579;28;20419;-76
2023/02/04 04:13:51;;;;;;;5.18;2.13;;;;;;;;;;4951820;28;20047;-77
2023/02/04 04:16:19;;;;;;;9.93;1.92;;;;;;;;;;4939141;28;20078;-76
2023/02/04 04:18:46;;;;;;;8.52;1.95;;;;;;;;;;4958637;28;20062;-74
2023/02/04 04:21:13;;;;;;;7.13;2.55;;;;;;;;;;4954724;28;20046;-75
2023/02/04 04:23:41;;;;;;;6.47;2.50;;;;;;;;;;4970397;28;20065;-75
2023/02/04 04:26:09;;;;;;;7.20;2.20;;;;;;;;;;4954484;28;20082;-75
2023/02/04 04:28:35;;;;;;;8.77;2.53;;;;;;;;;;4954243;28;20057;-75
2023/02/04 04:31:02;;;;;;;6.50;2.67;;;;;;;;;;4955806;28;20051;-74
2023/02/04 04:33:29;;;;;;;10.35;2.30;;;;;;;;;;4935288;29;20051;-74
2023/02/04 04:35:56;;;;;;;11.60;2.50;;;;;;;;;;4962586;28;20467;-75
2023/02/04 04:38:22;;;;;;;6.03;2.00;;;;;;;;;;4938023;28;20061;-75
2023/02/04 04:40:49;;;;;;;9.23;2.90;;;;;;;;;;4953547;28;20062;-75
2023/02/04 04:43:16;;;;;;;7.13;1.98;;;;;;;;;;4954068;28;20051;-74
2023/02/04 04:45:43;;;;;;;8.40;2.20;;;;;;;;;;4974968;28;20062;-74
2023/02/04 04:48:10;;;;;;;8.40;2.75;;;;;;;;;;4937831;29;20062;-75
2023/02/04 04:50:36;;;;;;;8.20;2.90;;;;;;;;;;4922158;28;20521;-75
2023/02/04 04:53:03;;;;;;;10.38;2.55;;;;;;;;;;4938120;28;20077;-76
2023/02/04 04:55:31;;;;;;;9.93;2.63;;;;;;;;;;4938565;28;20057;-75
2023/02/04 04:57:58;;;;;;;16.70;3.22;;;;;;;;;;4938941;28;20511;-75
2023/02/04 05:00:25;;;;;;;5.28;2.38;;;;;;;;;;4938350;28;20094;-75
2023/02/04 05:02:52;;;;;;;6.80;2.47;;;;;;;;;;4937924;28;20057;-76
2023/02/04 05:05:19;;;;;;;11.27;2.90;;;;;;;;;;4937776;28;20223;-76
2023/02/04 05:07:46;;;;;;;12.70;3.78;;;;;;;;;;4953658;28;20051;-76
2023/02/04 05:10:12;;;;;;;9.93;3.30;;;;;;;;;;4969175;28;20051;-76
2023/02/04 05:12:39;;;;;;;10.90;2.97;;;;;;;;;;4953368;28;20423;-75
2023/02/04 05:15:06;;;;;;;7.72;2.85;;;;;;;;;;4950058;29;20043;-75
2023/02/04 05:17:33;;;;;;;12.20;3.42;;;;;;;;;;4935703;28;20055;-74
2023/02/04 05:20:00;;;;;;;7.95;3.03;;;;;;;;;;4969291;28;20059;-74
2023/02/04 05:22:26;;;;;;;9.38;3.30;;;;;;;;;;4950090;29;20051;-74
2023/02/04 05:24:53;;;;;;;8.65;3.30;;;;;;;;;;4935360;28;20044;-75
2023/02/04 05:27:20;;;;;;;10.73;3.15;;;;;;;;;;4980040;28;20050;-74
2023/02/04 05:29:46;;;;;;;13.57;4.38;;;;;;;;;;4937605;28;20127;-74
2023/02/04 05:32:13;;;;;;;12.15;3.67;;;;;;;;;;4960715;28;20101;-75
2023/02/04 05:34:40;;;;;;;8.20;3.08;;;;;;;;;;4952959;28;20141;-75
2023/02/04 05:37:07;;;;;;;8.40;3.22;;;;;;;;;;4937176;28;20051;-76
2023/02/04 05:39:33;;;;;;;9.52;4.03;;;;;;;;;;4953707;28;20050;-76
2023/02/04 05:42:00;;;;;;;9.48;3.30;;;;;;;;;;4937194;28;20059;-76
2023/02/04 05:44:27;;;;;;;12.07;3.72;;;;;;;;;;4949773;28;20055;-76
2023/02/04 05:46:53;;;;;;;10.70;4.03;;;;;;;;;;4959457;28;20110;-76
2023/02/04 05:49:20;;;;;;;8.88;3.58;;;;;;;;;;4937487;28;20062;-76
2023/02/04 05:51:47;;;;;;;12.00;4.35;;;;;;;;;;4969137;28;20051;-76
2023/02/04 05:54:18;;;;;;;9.13;3.72;;;;;;;;;;4950360;28;20066;-75
2023/02/04 05:56:46;;;;;;;8.88;3.70;;;;;;;;;;4953860;28;20150;-76
2023/02/04 05:59:13;;;;;;;13.43;4.75;;;;;;;;;;4955875;28;20046;-76
2023/02/04 06:01:39;;;;;;;10.60;4.38;;;;;;;;;;4939371;29;20059;-76
2023/02/04 06:04:06;;;;;;;9.82;4.25;;;;;;;;;;4948187;28;20062;-75
2023/02/04 06:06:33;;;;;;;8.02;4.90;;;;;;;;;;4937313;28;20078;-75
2023/02/04 06:09:00;;;;;;;10.30;4.53;;;;;;;;;;4937212;28;20488;-75
2023/02/04 06:11:27;;;;;;;10.75;4.45;;;;;;;;;;4937440;28;20419;-75
2023/02/04 06:13:53;;;;;;;10.13;4.57;;;;;;;;;;4939263;28;20066;-75
2023/02/04 06:16:20;;;;;;;10.05;4.50;;;;;;;;;;4936373;28;20070;-74
2023/02/04 06:18:47;;;;;;;13.63;4.97;;;;;;;;;;4963322;28;20082;-75
2023/02/04 06:21:14;;;;;;;13.05;4.72;;;;;;;;;;4952636;28;20062;-75
2023/02/04 06:23:40;;;;;;;10.07;5.40;;;;;;;;;;4952018;28;20051;-74
2023/02/04 06:26:08;;;;;;;11.35;5.68;;;;;;;;;;4954874;28;20047;-81
2023/02/04 06:28:35;;;;;;;13.88;5.05;;;;;;;;;;4962262;28;20063;-75
2023/02/04 06:31:02;;;;;;;14.55;5.50;;;;;;;;;;4919951;28;20062;-75
2023/02/04 06:33:29;;;;;;;11.80;5.55;;;;;;;;;;4930986;28;20078;-76
2023/02/04 06:35:56;;;;;;;15.63;5.60;;;;;;;;;;4984837;28;20054;-75
2023/02/04 06:38:23;;;;;;;17.70;6.32;;;;;;;;;;4933507;29;20523;-75
2023/02/04 06:40:52;;;;;;;12.82;6.20;;;;;;;;;;4949644;29;20062;-76
2023/02/04 06:43:20;;;;;;;14.43;6.70;;;;;;;;;;4951303;28;20055;-75
2023/02/04 06:45:49;;;;;;;13.07;6.07;;;;;;;;;;4952878;29;20131;-76
2023/02/04 06:48:17;;;;;;;12.63;6.35;;;;;;;;;;4952961;29;20110;-74
2023/02/04 06:50:44;;;;;;;13.98;6.15;;;;;;;;;;4931306;29;20528;-76
2023/02/04 06:53:10;;;;;;;12.77;5.93;;;;;;;;;;4936801;29;20062;-75
2023/02/04 06:55:37;;;;;;;14.05;6.53;;;;;;;;;;4936981;29;20423;-76
2023/02/04 06:58:04;;;;;;;21.55;7.10;;;;;;;;;;4952484;28;20143;-74
2023/02/04 07:00:32;;;;;;;18.88;6.85;;;;;;;;;;4952381;28;20051;-74
2023/02/04 07:02:59;;;;;;;15.40;6.10;;;;;;;;;;4937063;29;20141;-74
2023/02/04 07:05:26;;;;;;;14.23;5.45;;;;;;;;;;4952824;28;20057;-80
2023/02/04 07:07:53;;;;;;;15.13;5.30;;;;;;;;;;4944725;28;20054;-78
2023/02/04 07:10:19;;;;;;;16.55;5.25;;;;;;;;;;4957067;28;20070;-78
2023/02/04 07:12:46;;;;;;;12.70;5.82;;;;;;;;;;4971816;28;20057;-77
2023/02/04 07:15:13;;;;;;;14.38;5.95;;;;;;;;;;4955796;28;20399;-76
2023/02/04 07:17:40;;;;;;;9.30;5.93;;;;;;;;;;4940038;28;20077;-75
2023/02/04 07:20:08;;;;;;;16.02;5.70;;;;;;;;;;4934527;28;20050;-75
2023/02/04 07:22:35;;;;;;;14.85;5.80;;;;;;;;;;4934672;28;20055;-76
2023/02/04 07:25:02;;;;;;;20.25;6.07;;;;;;;;;;4954037;28;20074;-78
2023/02/04 07:27:29;;;;;;;13.98;5.15;;;;;;;;;;4954114;28;20065;-78
2023/02/04 07:29:55;;;;;;;13.57;5.80;;;;;;;;;;4938620;28;20475;-77
2023/02/04 07:32:22;;;;;;;18.35;7.32;;;;;;;;;;4938733;28;20564;-77
2023/02/04 07:34:49;;;;;;;13.65;6.55;;;;;;;;;;4939420;28;20141;-77
2023/02/04 07:37:16;;;;;;;18.95;6.85;;;;;;;;;;4973556;28;20051;-78
2023/02/04 07:39:43;;;;;;;19.65;6.28;;;;;;;;;;4943583;28;20530;-78
2023/02/04 07:42:10;;;;;;;15.55;6.32;;;;;;;;;;4975154;28;20055;-78
2023/02/04 07:44:36;;;;;;;13.93;6.05;;;;;;;;;;4976688;28;20121;-79
2023/02/04 07:47:04;;;;;;;13.32;6.05;;;;;;;;;;4941222;29;20928;-78
2023/02/04 07:49:31;;;;;;;14.10;5.30;;;;;;;;;;4925049;29;20051;-78
2023/02/04 07:51:58;;;;;;;12.98;6.15;;;;;;;;;;4925668;29;20051;-78
2023/02/04 07:54:25;;;;;;;16.20;6.20;;;;;;;;;;4955911;28;20055;-78
2023/02/04 07:56:51;;;;;;;15.63;5.10;;;;;;;;;;4924389;29;20058;-78
2023/02/04 07:59:18;;;;;;;9.63;4.80;;;;;;;;;;4929258;28;20050;-77
2023/02/04 08:01:46;;;;;;;14.05;6.10;;;;;;;;;;4938096;28;20061;-77
2023/02/04 08:04:13;;;;;;;13.55;7.18;;;;;;;;;;4955754;28;20063;-78
2023/02/04 08:06:40;;;;;;;14.10;6.35;;;;;;;;;;4953988;28;20058;-77
2023/02/04 08:09:06;;;;;;;15.55;5.95;;;;;;;;;;4937997;28;20054;-77
2023/02/04 08:11:33;;;;;;;12.60;5.43;;;;;;;;;;4938425;28;20069;-76
2023/02/04 08:14:00;;;;;;;13.95;5.35;;;;;;;;;;4938061;28;20070;-77
2023/02/04 08:16:27;;;;;;;13.20;5.70;;;;;;;;;;4955252;28;20077;-76
2023/02/04 08:18:54;;;;;;;12.30;5.43;;;;;;;;;;4941317;28;20358;-77
2023/02/04 08:21:20;;;;;;;14.40;5.75;;;;;;;;;;4954753;28;20082;-76
2023/02/04 08:23:47;;;;;;;11.25;4.55;;;;;;;;;;4953582;28;20146;-77
2023/02/04 08:26:14;;;;;;;14.35;4.68;;;;;;;;;;4948137;28;20038;-76
2023/02/04 08:28:40;;;;;;;19.92;6.13;;;;;;;;;;4960421;28;20055;-77
2023/02/04 08:31:10;;;;;;;10.23;4.60;;;;;;;;;;4937683;28;20050;-77
2023/02/04 08:33:38;;;;;;;10.82;5.10;;;;;;;;;;4938116;28;20054;-77
2023/02/04 08:36:06;;;;;;;12.68;4.70;;;;;;;;;;4937556;28;20051;-77
2023/02/04 08:38:33;;;;;;;16.48;5.65;;;;;;;;;;4937842;28;20055;-77
2023/02/04 08:41:00;;;;;;;15.60;4.60;;;;;;;;;;4934098;29;20468;-77
2023/02/04 08:43:26;;;;;;;11.18;3.70;;;;;;;;;;4951115;29;20051;-77
2023/02/04 08:45:53;;;;;;;15.35;4.50;;;;;;;;;;4957363;28;20570;-77
2023/02/04 08:48:20;;;;;;;18.05;4.43;;;;;;;;;;4936188;28;20051;-77
2023/02/04 08:50:46;;;;;;;16.20;4.70;;;;;;;;;;4952787;28;20427;-77
2023/02/04 08:53:13;;;;;;;16.05;4.63;;;;;;;;;;4954149;28;20054;-77
2023/02/04 08:55:40;;;;;;;13.65;5.10;;;;;;;;;;4962257;28;20046;-77
2023/02/04 08:58:06;;;;;;;14.43;5.45;;;;;;;;;;4953966;28;20459;-77
2023/02/04 09:00:33;;;;;;;14.25;4.43;;;;;;;;;;4954189;28;20066;-78
2023/02/04 09:03:00;;;;;;;17.42;4.25;;;;;;;;;;4953242;28;20046;-77
2023/02/04 09:05:27;;;;;;;16.77;5.15;;;;;;;;;;4970676;28;20365;-78
2023/02/04 09:07:54;;;;;;;16.73;5.07;;;;;;;;;;4950145;29;20055;-77
2023/02/04 09:10:20;;;;;;;19.30;5.15;;;;;;;;;;4933727;29;20492;-77
2023/02/04 09:12:47;;;;;;;13.73;5.93;;;;;;;;;;4933465;29;20051;-77
2023/02/04 09:15:14;;;;;;;15.57;5.10;;;;;;;;;;4949000;28;20418;-77
2023/02/04 09:17:42;;;;;;;14.93;4.35;;;;;;;;;;4951193;28;20132;-78
2023/02/04 09:20:09;;;;;;;15.90;4.97;;;;;;;;;;4937938;29;20047;-78
2023/02/04 09:22:36;;;;;;;15.18;4.95;;;;;;;;;;4938426;29;20059;-78
2023/02/04 09:25:03;;;;;;;13.80;5.40;;;;;;;;;;4937688;29;20051;-78
2023/02/04 09:27:30;;;;;;;16.10;6.00;;;;;;;;;;4940416;28;20074;-78
2023/02/04 09:29:57;;;;;;;18.73;7.05;;;;;;;;;;4973536;28;20099;-77
2023/02/04 09:32:23;;;;;;;17.10;7.68;;;;;;;;;;4956783;28;20043;-79
2023/02/04 09:34:51;;;;;;;13.68;5.78;;;;;;;;;;4942764;28;20062;-78
2023/02/04 09:37:17;;;;;;;14.60;5.32;;;;;;;;;;4958312;28;20066;-78
2023/02/04 09:39:44;;;;;;;16.88;6.63;;;;;;;;;;4941472;28;20253;-78
2023/02/04 09:42:14;;;;;;;13.52;4.60;;;;;;;;;;4960831;28;20066;-78
2023/02/04 09:44:41;;;;;;;12.15;4.88;;;;;;;;;;4944025;28;20054;-78
2023/02/04 09:47:09;;;;;;;12.82;5.50;;;;;;;;;;4944095;28;20055;-78
2023/02/04 09:49:35;;;;;;;9.02;4.28;;;;;;;;;;4960032;28;20055;-78
2023/02/04 09:52:02;;;;;;;16.73;4.68;;;;;;;;;;4940862;29;20047;-78
2023/02/04 09:54:29;;;;;;;12.18;4.20;;;;;;;;;;4950794;28;20074;-77
2023/02/04 09:56:58;;;;;;;16.65;3.58;;;;;;;;;;4942568;28;20050;-77
2023/02/04 09:59:26;;;;;;;15.15;4.20;;;;;;;;;;4942826;28;20530;-77
2023/02/04 10:02:04;;;;;;;12.90;3.80;;;;;;;;;;4940847;28;20388;-78
2023/02/04 10:04:30;;;;;;;13.82;3.47;;;;;;;;;;4963523;28;20061;-79
2023/02/04 10:06:57;;;;;;;15.07;3.65;;;;;;;;;;4964534;28;20062;-79
2023/02/04 10:09:24;;;;;;;13.90;5.25;;;;;;;;;;4960122;28;20083;-79
2023/02/04 10:11:51;;;;;;;13.75;3.60;;;;;;;;;;4976247;28;20062;-79
2023/02/04 10:14:19;;;;;;;13.90;3.00;;;;;;;;;;4960752;28;20050;-79
2023/02/04 10:17:04;;;;;;;12.27;3.05;;;;;;;;;;4986355;28;20043;-78
2023/02/04 10:19:34;;;;;;;12.55;3.00;;;;;;;;;;4977234;28;20054;-78
2023/02/04 10:22:02;;;;;;;11.52;3.17;;;;;;;;;;4960674;28;20094;-79
2023/02/04 10:24:29;;;;;;;10.90;2.20;;;;;;;;;;4963355;28;20087;-79
2023/02/04 10:27:07;;;;;;;13.15;3.67;;;;;;;;;;4960986;28;20042;-79
2023/02/04 10:29:34;;;;;;;11.80;2.60;;;;;;;;;;4954223;28;20062;-79
2023/02/04 10:32:01;;;;;;;10.13;2.22;;;;;;;;;;4945964;28;20054;-78
2023/02/04 10:34:38;;;;;;;8.65;2.30;;;;;;;;;;4944722;28;20059;-78
2023/02/04 10:37:31;;;;;;;14.27;2.97;;;;;;;;;;4946075;28;20080;-78
2023/02/04 10:39:58;;;;;;;8.90;2.80;;;;;;;;;;4955708;28;20055;-79
2023/02/04 10:42:27;;;;;;;15.07;3.92;;;;;;;;;;4940166;28;20129;-78
2023/02/04 10:44:54;;;;;;;15.73;3.95;;;;;;;;;;4960612;28;20102;-79
2023/02/04 10:47:22;;;;;;;16.50;3.63;;;;;;;;;;4971155;28;20047;-78
2023/02/04 10:49:53;;;;;;;25.92;6.53;;;;;;;;;;4964410;28;20066;-78
2023/02/04 10:52:20;;;;;;;14.63;4.22;;;;;;;;;;4961029;28;20073;-77
2023/02/04 10:54:47;;;;;;;8.52;2.50;;;;;;;;;;4946387;28;20564;-79
2023/02/04 10:57:22;;;;;;;9.88;3.47;;;;;;;;;;4946408;28;20574;-78
2023/02/04 10:59:50;;;;;;;9.57;2.63;;;;;;;;;;4946018;28;20066;-78
2023/02/04 11:02:42;;;;;;;11.77;2.75;;;;;;;;;;4961648;28;20694;-78
2023/02/04 11:05:19;;;;;;;9.57;2.30;;;;;;;;;;4977372;28;20055;-78
2023/02/04 11:07:47;;;;;;;10.55;2.33;;;;;;;;;;4960508;28;20050;-78
2023/02/04 11:10:21;;;;;;;11.40;2.65;;;;;;;;;;4976692;28;20376;-78
2023/02/04 11:12:54;;;;;;;8.52;2.40;;;;;;;;;;4944491;28;20046;-78
2023/02/04 11:15:47;;;;;;;9.15;2.25;;;;;;;;;;4973737;28;20051;-78
2023/02/04 11:18:19;;;;;;;20.52;3.08;;;;;;;;;;4956921;28;20419;-76
2023/02/04 11:20:51;;;;;;;19.73;4.13;;;;;;;;;;4971408;28;20466;-77
2023/02/04 11:23:24;;;;;;;13.23;3.03;;;;;;;;;;4939905;28;20051;-78
2023/02/04 11:26:17;;;;;;;11.43;2.30;;;;;;;;;;4970591;28;20050;-76
2023/02/04 11:28:55;;;;;;;11.30;2.80;;;;;;;;;;4939091;28;20090;-76
2023/02/04 11:31:21;;;;;;;12.90;2.97;;;;;;;;;;4953760;28;20475;-76
2023/02/04 11:33:49;;;;;;;11.35;2.22;;;;;;;;;;4969791;28;20055;-76
2023/02/04 11:36:16;;;;;;;10.85;2.97;;;;;;;;;;4938007;28;20055;-77
2023/02/04 11:38:48;;;;;;;16.00;3.03;;;;;;;;;;4932055;28;20066;-75
2023/02/04 11:41:24;;;;;;;13.05;3.08;;;;;;;;;;4940128;28;20062;-78
2023/02/04 11:43:52;;;;;;;16.48;2.97;;;;;;;;;;4938832;28;20055;-77
2023/02/04 11:46:19;;;;;;;17.67;2.50;;;;;;;;;;4965151;28;20765;-77
2023/02/04 11:48:46;;;;;;;12.15;2.50;;;;;;;;;;4939581;28;20053;-77
2023/02/04 11:51:17;;;;;;;10.68;2.60;;;;;;;;;;4961924;28;20051;-77
2023/02/04 11:53:49;;;;;;;14.30;2.80;;;;;;;;;;4965360;28;20054;-77
2023/02/04 11:56:17;;;;;;;9.77;2.10;;;;;;;;;;4954077;28;20043;-77
2023/02/04 11:58:44;;;;;;;9.65;2.90;;;;;;;;;;4938407;28;20055;-77
2023/02/04 12:01:19;;;;;;;16.95;3.47;;;;;;;;;;4968306;28;20051;-77
2023/02/04 12:03:48;;;;;;;11.05;3.03;;;;;;;;;;4951336;28;20443;-77
2023/02/04 12:06:26;;;;;;;8.90;2.40;;;;;;;;;;4934805;28;20503;-77
2023/02/04 12:09:26;;;;;;;8.32;2.28;;;;;;;;;;4958959;28;20760;-76
2023/02/04 12:11:55;;;;;;;11.52;2.47;;;;;;;;;;4946226;28;20058;-77
2023/02/04 12:14:31;;;;;;;17.80;2.72;;;;;;;;;;4931224;28;20048;-76
2023/02/04 12:16:57;;;;;;;14.95;3.30;;;;;;;;;;4935937;28;20051;-77
2023/02/04 12:19:24;;;;;;;17.20;3.90;;;;;;;;;;4958536;28;20058;-77
2023/02/04 12:21:54;;;;;;;10.32;2.80;;;;;;;;;;4957952;28;20138;-77
2023/02/04 12:24:20;;;;;;;12.02;2.78;;;;;;;;;;4935415;28;20046;-77
2023/02/04 12:26:47;;;;;;;10.25;3.38;;;;;;;;;;4938313;28;20052;-77
2023/02/04 12:29:14;;;;;;;11.77;2.83;;;;;;;;;;4975296;28;20062;-77
2023/02/04 12:31:41;;;;;;;11.90;2.13;;;;;;;;;;4944132;28;20086;-77
2023/02/04 12:34:08;;;;;;;12.65;2.17;;;;;;;;;;4941945;28;20130;-77
2023/02/04 12:36:34;;;;;;;8.52;2.28;;;;;;;;;;4931387;28;20051;-77
2023/02/04 12:39:02;;;;;;;13.63;1.92;;;;;;;;;;4948834;28;20062;-77
2023/02/04 12:41:29;;;;;;;13.35;2.35;;;;;;;;;;4941862;28;20062;-77
2023/02/04 12:43:55;;;;;;;9.07;2.45;;;;;;;;;;4934949;28;20074;-77
2023/02/04 12:46:22;;;;;;;9.75;2.10;;;;;;;;;;4956359;28;20043;-77
2023/02/04 12:48:49;;;;;;;10.40;3.22;;;;;;;;;;4956738;28;20571;-77
2023/02/04 12:51:16;;;;;;;17.48;2.72;;;;;;;;;;4949306;28;20126;-77
2023/02/04 12:53:42;;;;;;;11.73;2.05;;;;;;;;;;4954205;28;20050;-78
2023/02/04 12:56:09;;;;;;;10.05;2.15;;;;;;;;;;4962369;28;20051;-78
2023/02/04 12:58:36;;;;;;;15.32;2.80;;;;;;;;;;4965728;28;20058;-78
2023/02/04 13:01:03;;;;;;;14.63;1.98;;;;;;;;;;4944247;28;20311;-79
2023/02/04 13:03:30;;;;;;;11.52;2.67;;;;;;;;;;4956282;28;20074;-77
2023/02/04 13:05:57;;;;;;;14.93;3.63;;;;;;;;;;4963680;28;20040;-77
2023/02/04 13:08:24;;;;;;;12.00;3.75;;;;;;;;;;4957399;28;20062;-77
2023/02/04 13:10:50;;;;;;;13.90;4.88;;;;;;;;;;4937865;28;20105;-77
2023/02/04 13:13:18;;;;;;;16.48;2.60;;;;;;;;;;4932438;28;20047;-77
2023/02/04 13:15:45;;;;;;;12.30;2.78;;;;;;;;;;4961629;28;20499;-77
2023/02/04 13:18:12;;;;;;;10.20;2.70;;;;;;;;;;4933048;28;20062;-77
2023/02/04 13:20:39;;;;;;;10.95;4.03;;;;;;;;;;4951661;28;20416;-77
2023/02/04 13:23:05;;;;;;;19.83;3.17;;;;;;;;;;4947457;28;20051;-77
2023/02/04 13:25:32;;;;;;;7.70;2.00;;;;;;;;;;4936278;28;20047;-77
2023/02/04 13:28:00;;;;;;;12.90;2.75;;;;;;;;;;4945305;28;20487;-77
2023/02/04 13:30:27;;;;;;;11.23;2.70;;;;;;;;;;4957389;28;20054;-77
2023/02/04 13:32:53;;;;;;;8.85;1.67;;;;;;;;;;4934514;28;20924;-77
2023/02/04 13:35:20;;;;;;;10.18;2.13;;;;;;;;;;4940820;28;20047;-77
2023/02/04 13:37:47;;;;;;;14.85;1.98;;;;;;;;;;4950923;28;20043;-77
2023/02/04 13:40:13;;;;;;;7.53;1.70;;;;;;;;;;4969115;28;20081;-77
2023/02/04 13:42:40;;;;;;;14.43;2.70;;;;;;;;;;4952251;28;20073;-77
2023/02/04 13:45:11;;;;;;;14.07;2.33;;;;;;;;;;4945186;28;20242;-78
2023/02/04 13:47:38;;;;;;;11.20;2.15;;;;;;;;;;4964671;28;20055;-79
2023/02/04 13:50:05;;;;;;;10.77;2.88;;;;;;;;;;4941353;28;20081;-78
2023/02/04 13:52:33;;;;;;;9.95;2.78;;;;;;;;;;4944154;28;20055;-78
2023/02/04 13:55:00;;;;;;;8.98;2.30;;;;;;;;;;4953524;28;20069;-78
2023/02/04 13:57:26;;;;;;;11.60;2.67;;;;;;;;;;4946055;28;20542;-78
2023/02/04 13:59:53;;;;;;;12.75;2.95;;;;;;;;;;4973442;28;20583;-74
2023/02/04 14:02:22;;;;;;;9.20;1.83;;;;;;;;;;4956759;28;20051;-77
2023/02/04 14:04:49;;;;;;;7.55;1.52;;;;;;;;;;4954738;28;20095;-79
2023/02/04 14:07:16;;;;;;;9.65;2.50;;;;;;;;;;4955691;28;20051;-77
2023/02/04 14:09:42;;;;;;;5.18;1.52;;;;;;;;;;4973103;28;20038;-78
2023/02/04 14:12:09;;;;;;;7.43;1.75;;;;;;;;;;4962828;28;20058;-78
2023/02/04 14:14:36;;;;;;;8.15;1.95;;;;;;;;;;4956528;28;20046;-78
2023/02/04 14:17:03;;;;;;;5.05;1.30;;;;;;;;;;4940219;28;20423;-77
2023/02/04 14:19:30;;;;;;;7.35;1.63;;;;;;;;;;4965983;28;20058;-77
2023/02/04 14:21:57;;;;;;;12.32;2.05;;;;;;;;;;4940689;28;20050;-78
2023/02/04 14:24:24;;;;;;;8.30;2.00;;;;;;;;;;4944649;28;20058;-77
2023/02/04 14:26:51;;;;;;;9.27;2.47;;;;;;;;;;4968166;28;20058;-78
2023/02/04 14:29:17;;;;;;;12.00;2.40;;;;;;;;;;4945067;28;20066;-79
2023/02/04 14:31:44;;;;;;;13.18;2.92;;;;;;;;;;4970072;28;20462;-77
2023/02/04 14:34:12;;;;;;;8.48;1.52;;;;;;;;;;4945191;28;20042;-78
2023/02/04 14:36:38;;;;;;;9.02;1.52;;;;;;;;;;4966293;28;20054;-77
2023/02/04 14:39:05;;;;;;;6.03;2.38;;;;;;;;;;4966710;28;20055;-77
2023/02/04 14:41:32;;;;;;;9.60;2.25;;;;;;;;;;4944997;28;20066;-77